createdAt,value
2023-04-24T00:01:10.062Z,2.65
2023-04-24T00:03:37.542Z,3.03
2023-04-24T00:06:04.598Z,3.08
2023-04-24T00:08:31.318Z,3.17
2023-04-24T00:10:58.307Z,2.92
2023-04-24T00:13:25.093Z,3.10
2023-04-24T00:15:51.968Z,2.83
2023-04-24T00:18:18.907Z,2.40
2023-04-24T00:20:45.917Z,3.05
2023-04-24T00:23:12.774Z,2.95
2023-04-24T00:25:39.870Z,2.72
2023-04-24T00:28:06.815Z,3.03
2023-04-24T00:30:33.614Z,2.97
2023-04-24T00:33:00.523Z,3.00
2023-04-24T00:35:27.337Z,3.00
2023-04-24T00:37:54.047Z,3.22
2023-04-24T00:40:20.822Z,2.80
2023-04-24T00:42:47.573Z,2.90
2023-04-24T00:45:14.545Z,2.70
2023-04-24T00:47:42.885Z,2.80
2023-04-24T00:50:10.097Z,2.80
2023-04-24T00:52:37.043Z,3.13
2023-04-24T00:55:04.294Z,2.90
2023-04-24T00:57:31.647Z,2.90
2023-04-24T00:59:58.896Z,2.80
2023-04-24T01:02:27.460Z,3.10
2023-04-24T01:04:54.419Z,2.65
2023-04-24T01:07:22.160Z,2.65
2023-04-24T01:09:52.126Z,2.78
2023-04-24T01:12:19.682Z,2.83
2023-04-24T01:14:46.959Z,2.80
2023-04-24T01:17:13.813Z,2.50
2023-04-24T01:19:41.436Z,2.75
2023-04-24T01:22:12.851Z,2.90
2023-04-24T01:24:39.906Z,2.67
2023-04-24T01:27:07.244Z,2.70
2023-04-24T01:29:34.707Z,2.75
2023-04-24T01:32:01.553Z,2.92
2023-04-24T01:34:28.530Z,2.80
2023-04-24T01:36:55.420Z,2.70
2023-04-24T01:39:24.204Z,2.60
2023-04-24T01:41:51.529Z,2.88
2023-04-24T01:44:19.361Z,2.63
2023-04-24T01:46:46.241Z,2.60
2023-04-24T01:49:13.152Z,2.38
2023-04-24T01:51:40.049Z,2.47
2023-04-24T01:54:07.100Z,2.47
2023-04-24T01:56:41.566Z,2.47
2023-04-24T02:01:37.330Z,2.88
2023-04-24T02:04:08.465Z,2.75
2023-04-24T02:06:35.636Z,2.92
2023-04-24T02:09:03.083Z,2.70
2023-04-24T02:11:29.866Z,2.63
2023-04-24T02:13:56.666Z,2.97
2023-04-24T02:16:23.482Z,3.10
2023-04-24T02:18:50.395Z,3.05
2023-04-24T02:21:17.177Z,3.05
2023-04-24T02:23:43.969Z,3.13
2023-04-24T02:26:11.360Z,3.10
2023-04-24T02:28:38.056Z,2.85
2023-04-24T02:31:04.818Z,3.30
2023-04-24T02:33:31.575Z,2.78
2023-04-24T02:35:58.281Z,2.67
2023-04-24T02:38:24.986Z,2.90
2023-04-24T02:40:51.714Z,2.80
2023-04-24T02:43:18.486Z,2.78
2023-04-24T02:45:45.234Z,2.70
2023-04-24T02:48:12.089Z,2.80
2023-04-24T02:50:38.848Z,2.40
2023-04-24T02:53:05.825Z,2.38
2023-04-24T02:55:32.567Z,2.30
2023-04-24T02:57:59.262Z,2.20
2023-04-24T03:00:26.275Z,2.40
2023-04-24T03:02:53.151Z,2.72
2023-04-24T03:05:20.301Z,2.15
2023-04-24T03:07:47.384Z,2.10
2023-04-24T03:10:14.305Z,2.13
2023-04-24T03:12:41.034Z,2.20
2023-04-24T03:15:08.414Z,1.98
2023-04-24T03:17:36.413Z,2.20
2023-04-24T03:20:03.664Z,1.92
2023-04-24T03:22:30.420Z,1.70
2023-04-24T03:24:57.740Z,1.73
2023-04-24T03:27:24.666Z,1.70
2023-04-24T03:29:56.321Z,1.50
2023-04-24T03:32:23.875Z,1.80
2023-04-24T03:34:51.383Z,1.92
2023-04-24T03:37:18.260Z,1.70
2023-04-24T03:39:45.498Z,2.03
2023-04-24T03:42:12.276Z,1.70
2023-04-24T03:44:38.938Z,1.50
2023-04-24T03:47:05.845Z,1.60
2023-04-24T03:49:32.814Z,1.60
2023-04-24T03:51:59.495Z,1.50
2023-04-24T03:54:26.262Z,1.25
2023-04-24T03:56:54.475Z,1.40
2023-04-24T03:59:21.248Z,1.08
2023-04-24T04:01:48.047Z,1.25
2023-04-24T04:04:14.935Z,1.25
2023-04-24T04:06:41.820Z,1.05
2023-04-24T04:09:09.575Z,0.90
2023-04-24T04:11:36.504Z,1.17
2023-04-24T04:14:03.582Z,1.10
2023-04-24T04:16:30.518Z,1.08
2023-04-24T04:18:57.287Z,1.00
2023-04-24T04:21:24.094Z,1.30
2023-04-24T04:23:50.848Z,1.40
2023-04-24T04:26:17.561Z,1.40
2023-04-24T04:28:45.517Z,0.90
2023-04-24T04:31:12.578Z,0.80
2023-04-24T04:33:40.462Z,1.15
2023-04-24T04:36:07.367Z,1.20
2023-04-24T04:38:34.649Z,1.30
2023-04-24T04:41:01.625Z,1.35
2023-04-24T04:43:28.323Z,1.10
2023-04-24T04:45:55.933Z,0.93
2023-04-24T04:48:23.409Z,1.13
2023-04-24T04:50:50.580Z,1.05
2023-04-24T04:53:17.304Z,0.90
2023-04-24T04:55:44.086Z,0.90
2023-04-24T04:58:10.829Z,1.15
2023-04-24T05:00:38.645Z,0.90
2023-04-24T05:03:19.242Z,0.90
2023-04-24T05:05:47.270Z,0.90
2023-04-24T05:08:25.905Z,0.85
2023-04-24T05:10:54.759Z,1.52
2023-04-24T05:13:28.431Z,1.10
2023-04-24T05:15:59.395Z,1.23
2023-04-24T05:18:26.076Z,1.30
2023-04-24T05:20:52.792Z,1.20
2023-04-24T05:23:19.460Z,1.40
2023-04-24T05:25:47.238Z,1.30
2023-04-24T05:28:13.915Z,0.70
2023-04-24T05:30:40.690Z,0.90
2023-04-24T05:33:07.537Z,1.00
2023-04-24T05:35:34.308Z,1.08
2023-04-24T05:38:00.999Z,1.10
2023-04-24T05:40:27.770Z,1.20
2023-04-24T05:42:54.577Z,1.38
2023-04-24T05:45:21.432Z,1.00
2023-04-24T05:47:48.226Z,0.80
2023-04-24T05:50:15.158Z,0.80
2023-04-24T05:52:41.856Z,0.90
2023-04-24T05:55:08.965Z,0.80
2023-04-24T05:57:35.897Z,0.70
2023-04-24T06:00:02.873Z,2.20
2023-04-24T06:02:33.558Z,1.30
2023-04-24T06:05:00.851Z,1.05
2023-04-24T06:07:27.781Z,0.80
2023-04-24T06:09:54.465Z,0.60
2023-04-24T06:12:21.197Z,0.90
2023-04-24T06:14:47.952Z,0.80
2023-04-24T06:17:15.007Z,0.50
2023-04-24T06:19:42.129Z,0.60
2023-04-24T06:22:10.894Z,0.50
2023-04-24T06:24:37.901Z,1.02
2023-04-24T06:27:04.745Z,1.48
2023-04-24T06:29:31.562Z,1.90
2023-04-24T06:31:58.468Z,2.05
2023-04-24T06:34:25.510Z,2.22
2023-04-24T06:36:52.515Z,2.90
2023-04-24T06:39:19.236Z,3.95
2023-04-24T06:41:45.933Z,4.03
2023-04-24T06:44:12.645Z,4.93
2023-04-24T06:46:41.561Z,4.65
2023-04-24T06:49:08.620Z,5.30
2023-04-24T06:51:36.555Z,5.25
2023-04-24T06:54:03.396Z,6.20
2023-04-24T06:56:30.551Z,6.20
2023-04-24T06:58:57.421Z,5.88
2023-04-24T07:01:24.329Z,6.45
2023-04-24T07:03:51.216Z,6.35
2023-04-24T07:06:19.923Z,6.30
2023-04-24T07:08:47.597Z,5.20
2023-04-24T07:11:14.323Z,5.38
2023-04-24T07:13:42.956Z,5.60
2023-04-24T07:16:10.803Z,5.65
2023-04-24T07:18:38.469Z,5.60
2023-04-24T07:21:05.515Z,5.00
2023-04-24T07:23:32.367Z,4.55
2023-04-24T07:25:59.161Z,3.90
2023-04-24T07:28:26.470Z,3.78
2023-04-24T07:30:55.097Z,3.78
2023-04-24T07:33:22.065Z,3.00
2023-04-24T07:35:49.491Z,2.78
2023-04-24T07:38:16.223Z,2.58
2023-04-24T07:40:43.079Z,2.40
2023-04-24T07:43:09.814Z,2.30
2023-04-24T07:45:38.609Z,2.45
2023-04-24T07:48:05.512Z,2.33
2023-04-24T07:50:32.622Z,2.40
2023-04-24T07:52:59.356Z,2.75
2023-04-24T07:55:28.110Z,2.15
2023-04-24T07:57:55.304Z,2.30
2023-04-24T08:00:22.303Z,1.92
2023-04-24T08:02:49.237Z,3.17
2023-04-24T08:05:16.274Z,2.35
2023-04-24T08:07:47.122Z,2.75
2023-04-24T08:10:14.563Z,2.30
2023-04-24T08:12:41.740Z,2.22
2023-04-24T08:15:09.148Z,2.15
2023-04-24T08:17:36.752Z,2.50
2023-04-24T08:20:06.348Z,2.20
2023-04-24T08:22:33.346Z,2.25
2023-04-24T08:25:01.553Z,2.03
2023-04-24T08:27:28.454Z,2.20
2023-04-24T08:29:55.749Z,2.22
2023-04-24T08:32:22.532Z,2.15
2023-04-24T08:34:49.978Z,1.80
2023-04-24T08:37:16.852Z,1.60
2023-04-24T08:39:43.979Z,2.72
2023-04-24T08:42:13.923Z,2.72
2023-04-24T08:44:40.982Z,2.40
2023-04-24T08:47:09.097Z,2.20
2023-04-24T08:49:37.924Z,2.58
2023-04-24T08:52:06.213Z,2.78
2023-04-24T08:54:37.806Z,2.80
2023-04-24T08:57:05.022Z,2.50
2023-04-24T08:59:32.583Z,2.20
2023-04-24T09:02:00.282Z,2.58
2023-04-24T09:04:28.673Z,2.25
2023-04-24T09:06:57.997Z,2.45
2023-04-24T09:09:25.963Z,2.63
2023-04-24T09:11:55.840Z,2.35
2023-04-24T09:14:24.098Z,2.58
2023-04-24T09:16:52.163Z,2.63
2023-04-24T09:19:19.646Z,2.80
2023-04-24T09:21:47.657Z,2.83
2023-04-24T09:24:19.625Z,3.00
2023-04-24T09:26:46.691Z,3.55
2023-04-24T09:29:17.808Z,3.90
2023-04-24T09:31:46.688Z,3.60
2023-04-24T09:34:13.862Z,2.65
2023-04-24T09:36:43.034Z,2.38
2023-04-24T09:39:17.691Z,2.33
2023-04-24T09:42:01.987Z,2.50
2023-04-24T09:44:29.725Z,2.00
2023-04-24T09:46:58.352Z,2.00
2023-04-24T09:49:35.154Z,2.40
2023-04-24T09:52:10.898Z,1.65
2023-04-24T09:54:39.368Z,2.05
2023-04-24T09:57:08.408Z,1.70
2023-04-24T09:59:37.250Z,1.60
2023-04-24T10:02:04.350Z,1.70
2023-04-24T10:04:31.165Z,2.30
2023-04-24T10:06:58.493Z,1.80
2023-04-24T10:09:27.106Z,1.77
2023-04-24T10:11:55.791Z,1.67
2023-04-24T10:14:25.465Z,1.60
2023-04-24T10:16:55.361Z,1.60
2023-04-24T10:19:22.156Z,1.70
2023-04-24T10:21:49.136Z,1.38
2023-04-24T10:24:19.285Z,1.90
2023-04-24T10:26:47.048Z,1.10
2023-04-24T10:29:16.598Z,1.70
2023-04-24T10:31:46.467Z,1.40
2023-04-24T10:34:15.584Z,1.30
2023-04-24T10:36:53.278Z,1.65
2023-04-24T10:39:27.910Z,1.40
2023-04-24T10:41:58.245Z,1.20
2023-04-24T10:44:25.526Z,1.40
2023-04-24T10:46:56.868Z,1.33
2023-04-24T10:49:31.267Z,1.70
2023-04-24T10:52:03.353Z,1.50
2023-04-24T10:54:35.856Z,1.70
2023-04-24T10:57:29.767Z,1.65
2023-04-24T11:00:15.147Z,1.60
2023-04-24T11:02:49.525Z,1.75
2023-04-24T11:05:18.693Z,1.90
2023-04-24T11:08:31.797Z,1.77
2023-04-24T11:11:01.812Z,1.67
2023-04-24T11:13:49.253Z,1.55
2023-04-24T11:16:36.302Z,1.60
2023-04-24T11:19:18.509Z,1.50
2023-04-24T11:22:18.037Z,1.65
2023-04-24T11:24:47.608Z,1.45
2023-04-24T11:27:17.408Z,1.50
2023-04-24T11:29:53.483Z,1.20
2023-04-24T11:32:42.430Z,1.52
2023-04-24T11:35:17.238Z,1.27
2023-04-24T11:38:08.087Z,1.20
2023-04-24T11:40:38.998Z,1.20
2023-04-24T11:43:08.283Z,1.30
2023-04-24T11:45:35.916Z,1.30
2023-04-24T11:48:04.737Z,1.55
2023-04-24T11:50:31.703Z,1.63
2023-04-24T11:52:58.777Z,1.50
2023-04-24T11:55:27.964Z,1.27
2023-04-24T11:58:00.407Z,1.52
2023-04-24T12:00:29.853Z,1.40
2023-04-24T12:03:10.184Z,1.30
2023-04-24T12:05:37.665Z,1.30
2023-04-24T12:08:04.995Z,1.20
2023-04-24T12:10:33.433Z,1.30
2023-04-24T12:13:01.417Z,1.42
2023-04-24T12:15:28.925Z,1.30
2023-04-24T12:17:56.944Z,1.55
2023-04-24T12:20:29.354Z,1.50
2023-04-24T12:23:00.911Z,1.42
2023-04-24T12:25:37.442Z,1.30
2023-04-24T12:28:04.107Z,1.38
2023-04-24T12:30:33.733Z,1.15
2023-04-24T12:33:01.870Z,1.20
2023-04-24T12:35:30.162Z,1.30
2023-04-24T12:38:02.077Z,1.48
2023-04-24T12:40:30.057Z,1.20
2023-04-24T12:42:58.135Z,1.30
2023-04-24T12:45:26.323Z,1.23
2023-04-24T12:47:53.039Z,1.02
2023-04-24T12:50:20.393Z,1.17
2023-04-24T12:52:47.083Z,1.35
2023-04-24T12:55:14.158Z,1.20
2023-04-24T12:57:41.465Z,1.10
2023-04-24T13:00:09.373Z,1.33
2023-04-24T13:02:36.476Z,1.23
2023-04-24T13:05:03.825Z,1.25
2023-04-24T13:07:30.616Z,1.10
2023-04-24T13:09:58.668Z,1.10
2023-04-24T13:12:26.449Z,1.02
2023-04-24T13:14:54.041Z,1.20
2023-04-24T13:17:21.273Z,1.23
2023-04-24T13:19:51.098Z,1.13
2023-04-24T13:22:19.826Z,1.10
2023-04-24T13:24:46.605Z,1.30
2023-04-24T13:27:13.327Z,1.20
2023-04-24T13:29:40.129Z,1.20
2023-04-24T13:32:07.376Z,1.00
2023-04-24T13:34:35.480Z,0.90
2023-04-24T13:37:02.736Z,1.10
2023-04-24T13:39:29.758Z,1.00
2023-04-24T13:41:56.551Z,0.88
2023-04-24T13:44:24.539Z,0.80
2023-04-24T13:46:57.634Z,0.77
2023-04-24T13:49:28.028Z,0.85
2023-04-24T13:51:56.269Z,0.98
2023-04-24T13:54:24.433Z,0.80
2023-04-24T13:56:51.943Z,0.77
2023-04-24T13:59:18.792Z,0.90
2023-04-24T14:01:46.198Z,0.80
2023-04-24T14:04:13.397Z,0.80
2023-04-24T14:06:40.435Z,0.60
2023-04-24T14:09:08.041Z,0.70
2023-04-24T14:11:35.619Z,0.70
2023-04-24T14:14:02.396Z,0.70
2023-04-24T14:16:30.047Z,0.60
2023-04-24T14:18:57.373Z,0.93
2023-04-24T14:21:24.108Z,0.90
2023-04-24T14:23:51.216Z,0.90
2023-04-24T14:26:17.982Z,1.00
2023-04-24T14:28:44.743Z,0.70
2023-04-24T14:31:12.407Z,0.82
2023-04-24T14:33:39.125Z,0.80
2023-04-24T14:36:06.714Z,0.90
2023-04-24T14:38:33.588Z,1.10
2023-04-24T14:41:07.272Z,0.90
2023-04-24T14:43:36.272Z,0.93
2023-04-24T14:46:04.285Z,1.10
2023-04-24T14:48:31.449Z,0.80
2023-04-24T14:50:58.393Z,0.82
2023-04-24T14:53:25.245Z,1.02
2023-04-24T14:55:52.036Z,1.00
2023-04-24T14:58:18.908Z,1.10
2023-04-24T15:00:45.628Z,1.00
2023-04-24T15:03:12.553Z,0.90
2023-04-24T15:05:39.767Z,0.80
2023-04-24T15:08:06.721Z,0.80
2023-04-24T15:10:33.997Z,0.90
2023-04-24T15:13:00.836Z,0.90
2023-04-24T15:15:27.604Z,0.90
2023-04-24T15:17:54.364Z,1.05
2023-04-24T15:20:21.197Z,0.88
2023-04-24T15:22:48.035Z,0.90
2023-04-24T15:25:14.770Z,0.90
2023-04-24T15:27:46.122Z,0.82
2023-04-24T15:30:13.571Z,1.13
2023-04-24T15:32:40.876Z,1.00
2023-04-24T15:35:10.078Z,1.10
2023-04-24T15:37:39.028Z,1.00
2023-04-24T15:40:08.202Z,1.00
2023-04-24T15:42:36.281Z,1.10
2023-04-24T15:45:04.478Z,1.20
2023-04-24T15:47:31.493Z,1.00
2023-04-24T15:49:58.842Z,1.10
2023-04-24T15:52:26.153Z,1.20
2023-04-24T15:54:53.102Z,1.00
2023-04-24T15:57:19.947Z,1.00
2023-04-24T15:59:47.006Z,0.88
2023-04-24T16:02:19.269Z,1.15
2023-04-24T16:04:50.922Z,0.90
2023-04-24T16:07:18.347Z,1.00
2023-04-24T16:09:45.375Z,1.27
2023-04-24T16:12:12.559Z,1.00
2023-04-24T16:14:39.481Z,1.00
2023-04-24T16:17:06.813Z,1.23
2023-04-24T16:19:34.595Z,1.20
2023-04-24T16:22:03.113Z,1.25
2023-04-24T16:24:30.199Z,1.15
2023-04-24T16:26:57.519Z,1.20
2023-04-24T16:29:24.615Z,1.33
2023-04-24T16:31:51.498Z,1.10
2023-04-24T16:34:18.277Z,1.15
2023-04-24T16:36:45.089Z,1.10
2023-04-24T16:39:12.491Z,1.20
2023-04-24T16:41:39.618Z,1.00
2023-04-24T16:44:06.389Z,1.17
2023-04-24T16:46:33.276Z,1.20
2023-04-24T16:49:00.434Z,0.95
2023-04-24T16:51:27.914Z,1.35
2023-04-24T16:53:55.152Z,1.40
2023-04-24T16:56:21.986Z,1.17
2023-04-24T16:58:49.010Z,1.23
2023-04-24T17:01:15.999Z,1.20
2023-04-24T17:03:43.048Z,1.20
2023-04-24T17:06:10.480Z,1.13
2023-04-24T17:08:37.173Z,1.30
2023-04-24T17:11:04.122Z,1.40
2023-04-24T17:13:30.992Z,1.08
2023-04-24T17:15:57.828Z,1.25
2023-04-24T17:18:24.596Z,1.10
2023-04-24T17:20:51.490Z,1.25
2023-04-24T17:23:18.331Z,1.20
2023-04-24T17:25:45.081Z,1.20
2023-04-24T17:28:30.802Z,1.40
2023-04-24T17:30:58.645Z,4.13
2023-04-24T17:33:30.697Z,2.28
2023-04-24T17:36:03.806Z,1.42
2023-04-24T17:38:30.862Z,1.60
2023-04-24T17:40:58.564Z,2.03
2023-04-24T17:43:25.641Z,1.92
2023-04-24T17:45:57.162Z,2.40
2023-04-24T17:48:23.903Z,2.10
2023-04-24T17:50:51.040Z,1.60
2023-04-24T17:53:18.996Z,1.70
2023-04-24T17:55:49.001Z,2.10
2023-04-24T17:58:15.938Z,2.40
2023-04-24T18:00:42.700Z,3.10
2023-04-24T18:03:10.261Z,2.85
2023-04-24T18:05:38.922Z,1.67
2023-04-24T18:08:06.156Z,1.40
2023-04-24T18:10:36.529Z,1.67
2023-04-24T18:13:04.647Z,2.20
2023-04-24T18:15:31.854Z,2.30
2023-04-24T18:17:58.842Z,1.90
2023-04-24T18:20:25.867Z,1.60
2023-04-24T18:22:52.827Z,1.58
2023-04-24T18:25:26.580Z,1.65
2023-04-24T18:27:56.832Z,1.60
2023-04-24T18:30:24.532Z,1.83
2023-04-24T18:32:53.205Z,2.30
2023-04-24T18:35:21.114Z,2.83
2023-04-24T18:37:47.886Z,2.20
2023-04-24T18:40:15.415Z,2.30
2023-04-24T18:42:42.813Z,2.70
2023-04-24T18:45:13.056Z,3.33
2023-04-24T18:47:41.383Z,2.22
2023-04-24T18:50:08.506Z,2.38
2023-04-24T18:52:35.296Z,2.30
2023-04-24T18:55:03.636Z,2.03
2023-04-24T18:57:30.337Z,2.30
2023-04-24T18:59:57.010Z,1.83
2023-04-24T19:02:23.785Z,1.90
2023-04-24T19:04:50.737Z,2.00
2023-04-24T19:07:19.339Z,1.92
2023-04-24T19:09:46.365Z,2.00
2023-04-24T19:12:13.198Z,2.30
2023-04-24T19:14:39.947Z,2.88
2023-04-24T19:17:08.389Z,2.88
2023-04-24T19:19:35.121Z,2.08
2023-04-24T19:22:02.237Z,2.30
2023-04-24T19:24:29.505Z,2.45
2023-04-24T19:26:56.708Z,2.95
2023-04-24T19:29:23.390Z,2.47
2023-04-24T19:31:50.099Z,2.20
2023-04-24T19:34:16.825Z,2.40
2023-04-24T19:36:43.807Z,2.00
2023-04-24T19:39:10.999Z,1.90
2023-04-24T19:41:39.250Z,2.05
2023-04-24T19:44:06.349Z,2.05
2023-04-24T19:46:33.345Z,1.80
2023-04-24T19:49:00.175Z,2.08
2023-04-24T19:51:27.632Z,2.22
2023-04-24T19:53:54.696Z,2.80
2023-04-24T19:56:21.350Z,4.50
2023-04-24T19:58:48.221Z,4.43
2023-04-24T20:01:15.301Z,3.47
2023-04-24T20:03:42.235Z,2.05
2023-04-24T20:06:09.162Z,3.53
2023-04-24T20:08:39.114Z,3.40
2023-04-24T20:11:06.437Z,3.72
2023-04-24T20:13:33.189Z,4.75
2023-04-24T20:16:00.344Z,3.25
2023-04-24T20:18:27.233Z,3.70
2023-04-24T20:20:57.036Z,3.33
2023-04-24T20:23:23.812Z,3.03
2023-04-24T20:25:50.476Z,3.38
2023-04-24T20:28:17.313Z,3.33
2023-04-24T20:30:44.025Z,3.63
2023-04-24T20:33:10.736Z,3.00
2023-04-24T20:35:37.447Z,2.80
2023-04-24T20:38:04.090Z,2.30
2023-04-24T20:40:31.828Z,2.05
2023-04-24T20:42:58.608Z,2.40
2023-04-24T20:45:25.833Z,2.40
2023-04-24T20:47:52.565Z,2.60
2023-04-24T20:50:19.351Z,2.80
2023-04-24T20:52:46.118Z,2.65
2023-04-24T20:55:13.084Z,2.38
2023-04-24T20:57:39.994Z,2.65
2023-04-24T21:00:08.786Z,2.20
2023-04-24T21:02:35.735Z,2.30
2023-04-24T21:05:02.893Z,2.50
2023-04-24T21:07:29.665Z,2.47
2023-04-24T21:09:56.606Z,2.53
2023-04-24T21:12:23.317Z,2.63
2023-04-24T21:14:51.163Z,2.63
2023-04-24T21:17:18.564Z,3.10
2023-04-24T21:19:45.471Z,3.17
2023-04-24T21:22:12.170Z,2.70
2023-04-24T21:24:38.853Z,2.92
2023-04-24T21:27:05.592Z,2.67
2023-04-24T21:29:33.176Z,2.70
2023-04-24T21:32:00.088Z,3.22
2023-04-24T21:34:27.042Z,3.30
2023-04-24T21:36:53.719Z,3.20
2023-04-24T21:39:21.082Z,2.65
2023-04-24T21:41:47.767Z,2.63
2023-04-24T21:44:14.806Z,3.40
2023-04-24T21:46:42.853Z,3.00
2023-04-24T21:49:09.746Z,3.28
2023-04-24T21:51:36.460Z,2.88
2023-04-24T21:54:03.797Z,2.97
2023-04-24T21:56:30.596Z,3.20
2023-04-24T21:58:57.556Z,2.95
2023-04-24T22:01:24.345Z,3.20
2023-04-24T22:03:51.434Z,3.00
2023-04-24T22:06:18.335Z,3.05
2023-04-24T22:08:47.792Z,3.30
2023-04-24T22:11:25.886Z,3.40
2023-04-24T22:13:54.727Z,4.28
2023-04-24T22:16:23.972Z,4.25
2023-04-24T22:18:53.606Z,4.75
2023-04-24T22:21:21.396Z,3.65
2023-04-24T22:23:48.606Z,2.90
2023-04-24T22:26:15.594Z,3.30
2023-04-24T22:28:42.312Z,3.40
2023-04-24T22:31:09.412Z,3.97
2023-04-24T22:33:36.287Z,3.03
2023-04-24T22:36:03.237Z,3.45
2023-04-24T22:38:29.981Z,3.90
2023-04-24T22:40:56.786Z,3.90
2023-04-24T22:43:23.493Z,3.90
2023-04-24T22:45:50.723Z,3.85
2023-04-24T22:48:17.378Z,3.58
2023-04-24T22:50:44.115Z,3.83
2023-04-24T22:53:11.137Z,3.40
2023-04-24T22:55:37.854Z,3.42
2023-04-24T22:58:06.368Z,3.90
2023-04-24T23:00:33.142Z,3.63
2023-04-24T23:03:00.181Z,3.35
2023-04-24T23:05:28.041Z,3.17
2023-04-24T23:07:54.853Z,3.40
2023-04-24T23:10:21.586Z,2.88
2023-04-24T23:12:48.835Z,3.60
2023-04-24T23:15:15.687Z,3.15
2023-04-24T23:17:42.384Z,3.42
2023-04-24T23:20:13.082Z,3.10
2023-04-24T23:22:40.116Z,3.10
2023-04-24T23:25:08.670Z,3.30
2023-04-24T23:27:35.841Z,3.40
2023-04-24T23:30:03.906Z,3.20
2023-04-24T23:32:30.734Z,2.90
2023-04-24T23:34:57.471Z,2.75
2023-04-24T23:37:24.541Z,2.90
2023-04-24T23:39:51.719Z,3.92
2023-04-24T23:42:18.392Z,3.47
2023-04-24T23:44:45.342Z,3.40
2023-04-24T23:47:12.020Z,2.90
2023-04-24T23:49:38.814Z,2.97
2023-04-24T23:52:05.595Z,2.70
2023-04-24T23:54:32.367Z,2.70
2023-04-24T23:56:59.118Z,2.70
2023-04-24T23:59:25.927Z,3.10
